Data for 04/23/2018

Time Sea-Level Adjusted Pressure Absolute Pressure Temperature Relative Humidity Dew Point   
(mb) (inHg) (mb) (inHg) (C) (F) (%) (C) (F)
00:05 1021 30.15 851 25.13 4 39.2 84 1.6 34.9
00:10 1021 30.15 851 25.13 4 39.2 86 1.8 35.3
00:15 1021 30.15 851 25.13 4.2 39.6 86 2 35.7
00:20 1022 30.18 851 25.13 4.3 39.8 85 2 35.6
00:25 1022 30.18 851 25.13 4.3 39.7 86 2.1 35.7
00:30 1022 30.18 851 25.13 4.1 39.5 86 2 35.6
00:35 1022 30.18 851 25.13 4.1 39.4 87 2.2 36
00:40 1022 30.18 851 25.13 4.1 39.4 88 2.2 36
00:45 1022 30.18 851 25.13 4 39.1 88 2.1 35.8
00:50 1022 30.18 851 25.13 3.8 38.9 87 1.9 35.5
00:55 1022 30.18 851 25.13 3.8 38.8 87 1.8 35.3
01:00 1022 30.18 851 25.13 3.7 38.6 85 1.4 34.6
01:05 1022 30.18 851 25.13 3.5 38.3 87 1.5 34.7
01:10 1022 30.18 851 25.13 3 37.4 85 0.7 33.3
01:15 1022 30.18 851 25.13 1.9 35.5 87 0 32
01:20 1022 30.18 851 25.13 1.4 34.6 89 -0.3 31.5
01:25 1022 30.18 851 25.13 1.1 33.9 90 -0.4 31.3
01:30 1022 30.18 851 25.13 0.7 33.3 91 -0.6 31
01:35 1022 30.18 851 25.13 0.6 33.2 92 -0.6 31
01:40 1022 30.18 851 25.13 0.7 33.2 92 -0.5 31.1
01:45 1021 30.15 851 25.13 0.6 33.1 92 -0.6 30.9
01:50 1021 30.15 851 25.13 0.6 33.1 92 -0.5 31.1
01:55 1021 30.15 851 25.13 0.6 33 92 -0.6 30.9
02:00 1022 30.18 851 25.13 0.5 32.8 92 -0.7 30.8
02:05 1022 30.18 851 25.13 0.4 32.7 92 -0.7 30.7
02:10 1022 30.18 851 25.13 0.3 32.6 93 -0.7 30.7
02:15 1022 30.18 851 25.13 0.4 32.7 93 -0.7 30.8
02:20 1022 30.18 851 25.13 0.3 32.6 93 -0.7 30.7
02:25 1022 30.18 851 25.13 0.3 32.5 93 -0.7 30.7
02:30 1022 30.18 851 25.13 0.3 32.5 93 -0.7 30.7
02:35 1022 30.18 851 25.13 0.3 32.5 93 -0.7 30.8
02:40 1022 30.18 851 25.13 0.3 32.6 93 -0.6 30.9
02:45 1022 30.18 851 25.13 0.4 32.7 93 -0.6 30.9
02:50 1022 30.18 851 25.13 0.4 32.7 93 -0.6 30.9
02:55 1021 30.15 851 25.13 0.3 32.5 93 -0.7 30.7
03:00 1021 30.15 851 25.13 0.1 32.1 93 -0.9 30.4
03:05 1021 30.15 851 25.13 0 32 93 -0.9 30.3
03:10 1022 30.18 851 25.13 0 32.1 94 -0.9 30.4
03:15 1021 30.15 851 25.13 0.1 32.2 94 -0.8 30.6
03:20 1021 30.15 851 25.13 0.2 32.3 94 -0.7 30.7
03:25 1022 30.18 851 25.13 0.3 32.5 94 -0.6 30.9
03:30 1022 30.18 851 25.13 0.3 32.5 94 -0.6 30.9
03:35 1022 30.18 851 25.13 0.2 32.4 94 -0.7 30.7
03:40 1022 30.18 851 25.13 0.3 32.5 94 -0.6 30.9
03:45 1022 30.18 851 25.13 0.4 32.8 94 -0.5 31.2
03:50 1022 30.18 851 25.13 0.5 32.9 94 -0.4 31.3
03:55 1021 30.15 851 25.13 0.6 33 94 -0.3 31.4
04:00 1021 30.15 851 25.13 0.7 33.3 93 -0.2 31.6
04:05 1021 30.15 851 25.13 0.8 33.5 93 -0.2 31.6
04:10 1021 30.15 851 25.13 0.9 33.6 91 -0.3 31.4
04:15 1021 30.15 851 25.13 1 33.8 91 -0.4 31.4
04:20 1022 30.18 851 25.13 1 33.8 90 -0.4 31.3
04:25 1022 30.18 851 25.13 1 33.9 90 -0.4 31.3
04:30 1022 30.18 851 25.13 1.1 33.9 90 -0.4 31.3
04:35 1022 30.18 851 25.13 1.1 33.9 90 -0.4 31.3
04:40 1022 30.18 851 25.13 1.1 33.9 90 -0.4 31.3
04:45 1022 30.18 851 25.13 1 33.8 90 -0.4 31.2
04:50 1022 30.18 851 25.13 0.6 33.1 91 -0.7 30.7
04:55 1022 30.18 851 25.13 0.3 32.5 92 -0.9 30.5
05:00 1022 30.18 851 25.13 0.2 32.3 93 -0.9 30.4
05:05 1022 30.18 851 25.13 0.1 32.2 93 -0.9 30.4
05:10 1022 30.18 851 25.13 0.1 32.1 93 -0.9 30.4
05:15 1022 30.18 851 25.13 0.1 32.1 93 -0.9 30.4
05:20 1022 30.18 851 25.13 0.1 32.3 93 -0.8 30.6
05:25 1022 30.18 851 25.13 0.2 32.3 94 -0.7 30.7
05:30 1022 30.18 851 25.13 0.4 32.7 94 -0.5 31.1
05:35 1022 30.18 851 25.13 0.4 32.8 94 -0.5 31.1
05:40 1022 30.18 851 25.13 0.4 32.6 94 -0.5 31
05:45 1022 30.18 851 25.13 0.4 32.7 94 -0.5 31
05:50 1022 30.18 851 25.13 0.4 32.7 94 -0.5 31
05:55 1022 30.18 851 25.13 0.4 32.7 94 -0.5 31
06:00 1022 30.18 851 25.13 0.3 32.5 94 -0.6 30.9
06:05 1022 30.18 851 25.13 0.4 32.7 94 -0.5 31.1
06:10 1022 30.18 851 25.13 0.3 32.6 93 -0.6 30.9
06:15 1022 30.18 851 25.13 0.3 32.5 94 -0.6 30.9
06:20 1022 30.18 851 25.13 0.3 32.6 94 -0.6 31
06:25 1022 30.18 851 25.13 0.4 32.7 94 -0.5 31.2
06:30 1022 30.18 851 25.13 0.5 32.8 94 -0.5 31.2
06:35 1022 30.18 851 25.13 0.4 32.7 94 -0.5 31.1
06:40 1022 30.18 851 25.13 0.4 32.8 93 -0.5 31.1
06:45 1022 30.18 851 25.13 0.4 32.7 93 -0.6 30.9
06:50 1022 30.18 852 25.16 0.4 32.7 93 -0.5 31
06:55 1022 30.18 852 25.16 0.4 32.7 93 -0.6 30.9
07:00 1022 30.18 852 25.16 0.4 32.7 93 -0.6 31
07:05 1022 30.18 852 25.16 0.5 32.9 93 -0.5 31.1
07:10 1023 30.21 852 25.16 0.5 33 93 -0.5 31.2
07:15 1023 30.21 852 25.16 0.5 33 93 -0.5 31.2
07:20 1023 30.21 852 25.16 0.5 33 93 -0.5 31.2
07:25 1023 30.21 852 25.16 0.6 33.1 93 -0.4 31.3
07:30 1023 30.21 852 25.16 0.5 32.9 92 -0.6 30.9
07:35 1023 30.21 852 25.16 0.4 32.7 93 -0.6 30.9
07:40 1023 30.21 852 25.16 0.5 32.9 93 -0.5 31.1
07:45 1023 30.21 852 25.16 0.5 32.9 93 -0.5 31.1
07:50 1023 30.21 852 25.16 0.5 32.9 93 -0.5 31.1
07:55 1023 30.21 853 25.19 0.5 33 93 -0.5 31.1
08:00 1023 30.21 853 25.19 0.5 33 93 -0.5 31.1
08:05 1024 30.24 853 25.19 0.4 32.7 93 -0.7 30.8
08:10 1024 30.24 853 25.19 0.3 32.5 93 -0.7 30.7
08:15 1024 30.24 853 25.19 0.2 32.4 93 -0.7 30.7
08:20 1024 30.24 853 25.19 0.3 32.6 93 -0.6 30.9
08:25 1024 30.24 853 25.19 0.2 32.4 93 -0.8 30.6
08:30 1024 30.24 853 25.19 0.3 32.6 94 -0.6 31
08:35 1024 30.24 853 25.19 0.6 33 94 -0.3 31.4
08:40 1024 30.24 853 25.19 0.6 33.1 94 -0.3 31.5
08:45 1024 30.24 853 25.19 0.7 33.3 93 -0.2 31.6
08:50 1024 30.24 853 25.19 0.7 33.2 93 -0.3 31.4
08:55 1024 30.24 853 25.19 0.6 33.1 93 -0.4 31.2
09:00 1024 30.24 853 25.19 0.5 32.9 93 -0.6 31
09:05 1024 30.24 853 25.19 0.5 32.8 92 -0.6 30.8
09:10 1024 30.24 853 25.19 0.4 32.8 92 -0.7 30.8
09:15 1024 30.24 853 25.19 0.4 32.7 92 -0.8 30.6
09:20 1024 30.24 854 25.22 0.4 32.6 92 -0.8 30.5
09:25 1024 30.24 854 25.22 0.3 32.6 92 -0.8 30.5
09:30 1024 30.24 854 25.22 0.3 32.5 92 -0.9 30.4
09:35 1024 30.24 854 25.22 0.3 32.5 92 -0.9 30.5
09:40 1024 30.24 854 25.22 0.3 32.6 92 -0.9 30.4
09:45 1025 30.27 854 25.22 0.4 32.7 92 -0.8 30.5
09:50 1025 30.27 854 25.22 0.4 32.8 92 -0.8 30.6
09:55 1025 30.27 854 25.22 0.4 32.7 92 -0.8 30.6
10:00 1025 30.27 854 25.22 0.4 32.7 92 -0.8 30.5
10:05 1025 30.27 854 25.22 0.4 32.7 92 -0.8 30.5
10:10 1025 30.27 854 25.22 0.4 32.6 92 -0.8 30.6
10:15 1025 30.27 854 25.22 0.3 32.6 92 -0.8 30.6
10:20 1025 30.27 854 25.22 0.3 32.5 93 -0.8 30.6
10:25 1025 30.27 855 25.25 0.3 32.5 93 -0.8 30.6
10:30 1025 30.27 855 25.25 0.2 32.4 93 -0.8 30.5
10:35 1026 30.3 855 25.25 0.2 32.3 93 -0.8 30.5
10:40 1026 30.3 855 25.25 0.2 32.4 93 -0.8 30.6
10:45 1026 30.3 855 25.25 0.2 32.4 93 -0.7 30.7
10:50 1026 30.3 855 25.25 0.3 32.6 93 -0.7 30.8
10:55 1026 30.3 855 25.25 0.3 32.6 93 -0.7 30.8
11:00 1026 30.3 855 25.25 0.3 32.6 93 -0.7 30.8
11:05 1026 30.3 855 25.25 0.4 32.6 93 -0.6 30.9
11:10 1026 30.3 855 25.25 0.4 32.7 93 -0.6 30.9
11:15 1026 30.3 855 25.25 0.4 32.7 93 -0.6 30.9
11:20 1026 30.3 855 25.25 0.4 32.7 93 -0.6 30.9
11:25 1026 30.3 856 25.28 0.5 32.9 93 -0.5 31
11:30 1026 30.3 856 25.28 0.5 32.9 92 -0.6 31
11:35 1026 30.3 856 25.28 0.5 33 92 -0.6 30.9
11:40 1027 30.33 856 25.28 0.6 33.1 91 -0.7 30.8
11:45 1027 30.33 856 25.28 0.7 33.2 90 -0.7 30.7
11:50 1027 30.33 856 25.28 0.7 33.3 91 -0.7 30.8
11:55 1027 30.33 856 25.28 0.6 33.1 91 -0.7 30.8
12:00 1027 30.33 856 25.28 0.6 33.1 91 -0.7 30.8
12:05 1027 30.33 856 25.28 0.6 33.1 91 -0.7 30.7
12:10 1027 30.33 856 25.28 0.6 33.1 90 -0.8 30.6
12:15 1027 30.33 856 25.28 0.6 33.1 91 -0.7 30.8
12:20 1027 30.33 856 25.28 0.5 33 91 -0.8 30.6
12:25 1027 30.33 856 25.28 0.6 33 91 -0.7 30.7
12:30 1027 30.33 856 25.28 0.6 33.1 91 -0.7 30.8
12:35 1027 30.33 856 25.28 0.7 33.2 91 -0.7 30.7
12:40 1027 30.33 856 25.28 0.6 33.1 91 -0.7 30.7
12:45 1027 30.33 857 25.31 0.8 33.4 91 -0.6 30.9
12:50 1027 30.33 857 25.31 0.8 33.4 90 -0.7 30.7
12:55 1027 30.33 857 25.31 0.8 33.5 90 -0.7 30.7
13:00 1027 30.33 857 25.31 0.8 33.5 89 -0.7 30.7
13:05 1028 30.36 857 25.31 0.8 33.5 90 -0.7 30.8
13:10 1028 30.36 857 25.31 0.8 33.4 91 -0.6 31
13:15 1028 30.36 857 25.31 0.9 33.6 91 -0.5 31.2
13:20 1028 30.36 857 25.31 1 33.8 90 -0.4 31.2
13:25 1028 30.36 857 25.31 0.9 33.7 90 -0.5 31
13:30 1028 30.36 857 25.31 0.9 33.7 91 -0.4 31.2
13:35 1028 30.36 857 25.31 1.2 34.2 89 -0.4 31.4
13:40 1028 30.36 857 25.31 1.3 34.3 88 -0.4 31.2
13:45 1028 30.36 857 25.31 1.8 35.3 87 -0.1 31.8
13:50 1028 30.36 857 25.31 2 35.7 85 -0.2 31.6
13:55 1028 30.36 857 25.31 2.1 35.9 86 0 32.1
14:00 1028 30.36 857 25.31 2.4 36.3 85 0.1 32.1
14:05 1028 30.36 857 25.31 2.6 36.8 84 0.2 32.4
14:10 1028 30.36 857 25.31 2.7 36.9 84 0.3 32.6
14:15 1028 30.36 857 25.31 2.1 35.8 84 -0.4 31.3
14:20 1028 30.36 857 25.31 1.7 35.1 87 -0.3 31.5
14:25 1028 30.36 857 25.31 2 35.6 86 -0.1 31.9
14:30 1028 30.36 857 25.31 2.2 35.9 84 -0.2 31.6
14:35 1028 30.36 857 25.31 2.3 36.2 81 -0.7 30.8
14:40 1028 30.36 857 25.31 2.5 36.4 82 -0.2 31.6
14:45 1028 30.36 857 25.31 2.6 36.7 81 -0.4 31.4
14:50 1028 30.36 857 25.31 2.8 37 76 -1 30.1
14:55 1028 30.36 858 25.34 2.7 36.8 78 -0.7 30.7
15:00 1028 30.36 858 25.34 2.7 36.8 77 -0.9 30.3
15:05 1028 30.36 858 25.34 2.5 36.5 78 -0.9 30.3
15:10 1029 30.39 858 25.34 2.8 37 75 -1.2 29.9
15:15 1029 30.39 858 25.34 2.6 36.7 77 -1.1 30
15:20 1029 30.39 858 25.34 2.8 37.1 76 -0.9 30.3
15:25 1029 30.39 858 25.34 3 37.5 76 -0.8 30.6
15:30 1029 30.39 858 25.34 2.7 36.9 76 -1.1 30
15:35 1029 30.39 858 25.34 2.6 36.7 76 -1.2 29.8
15:40 1029 30.39 858 25.34 2.9 37.3 73 -1.3 29.6
15:45 1029 30.39 858 25.34 2.9 37.3 70 -2 28.4
15:50 1029 30.39 858 25.34 3 37.3 68 -2.4 27.7
15:55 1029 30.39 858 25.34 3.3 38 67 -2.2 28
16:00 1029 30.39 858 25.34 3.3 38 71 -1.5 29.3
16:05 1029 30.39 858 25.34 3.4 38.2 69 -1.8 28.8
16:10 1029 30.39 858 25.34 3.3 37.9 68 -2 28.4
16:15 1029 30.39 858 25.34 3.1 37.6 69 -2 28.4
16:20 1029 30.39 858 25.34 3.3 38 68 -2 28.3
16:25 1029 30.39 858 25.34 3.3 38 68 -2 28.4
16:30 1029 30.39 858 25.34 3.3 38 69 -1.8 28.8
16:35 1029 30.39 858 25.34 3.4 38.2 69 -1.6 29
16:40 1029 30.39 858 25.34 3.5 38.2 68 -2 28.4
16:45 1029 30.39 858 25.34 3.4 38 66 -2.3 27.8
16:50 1029 30.39 858 25.34 3.1 37.6 68 -2.2 28.1
16:55 1029 30.39 858 25.34 3.1 37.6 67 -2.5 27.5
17:00 1029 30.39 858 25.34 3 37.3 69 -2.2 28.1
17:05 1029 30.39 858 25.34 3 37.3 69 -2.2 28.1
17:10 1029 30.39 858 25.34 2.8 37.1 72 -1.8 28.7
17:15 1029 30.39 858 25.34 3 37.4 71 -1.7 29
17:20 1029 30.39 858 25.34 2.8 37 68 -2.6 27.3
17:25 1029 30.39 858 25.34 2.7 36.9 68 -2.6 27.4
17:30 1029 30.39 858 25.34 2.9 37.2 69 -2.2 28.1
17:35 1029 30.39 858 25.34 2.8 37 69 -2.3 27.9
17:40 1029 30.39 858 25.34 2.8 37 69 -2.3 27.8
17:45 1029 30.39 858 25.34 2.7 36.9 70 -2.2 28
17:50 1029 30.39 858 25.34 2.7 36.8 69 -2.5 27.6
17:55 1029 30.39 858 25.34 2.5 36.5 69 -2.6 27.2
18:00 1029 30.39 858 25.34 2.5 36.5 69 -2.7 27.1
18:05 1029 30.39 858 25.34 2.5 36.5 68 -2.8 27
18:10 1029 30.39 858 25.34 2.5 36.4 70 -2.5 27.5
18:15 1029 30.39 858 25.34 2.7 36.8 70 -2.3 27.9
18:20 1029 30.39 858 25.34 2.8 37.1 69 -2.3 27.9
18:25 1029 30.39 858 25.34 2.8 37 68 -2.6 27.3
18:30 1029 30.39 858 25.34 2.7 36.9 68 -2.5 27.4
18:35 1029 30.39 858 25.34 2.6 36.6 69 -2.6 27.4
18:40 1029 30.39 858 25.34 2.5 36.5 69 -2.5 27.5
18:45 1029 30.39 858 25.34 2.5 36.5 69 -2.5 27.5
18:50 1029 30.39 858 25.34 2.4 36.4 71 -2.4 27.8
18:55 1029 30.39 858 25.34 2.4 36.3 71 -2.3 27.8
19:00 1029 30.39 859 25.37 2.3 36.1 72 -2.2 28.1
19:05 1029 30.39 859 25.37 2.2 36 73 -2.1 28.3
19:10 1029 30.39 859 25.37 2.2 35.9 73 -2.2 28
19:15 1029 30.39 859 25.37 2.1 35.7 74 -2.1 28.2
19:20 1029 30.39 859 25.37 2 35.6 75 -2 28.3
19:25 1029 30.39 859 25.37 2 35.5 75 -2.1 28.3
19:30 1029 30.39 859 25.37 1.9 35.5 76 -1.9 28.6
19:35 1029 30.39 859 25.37 1.8 35.3 76 -2 28.5
19:40 1029 30.39 859 25.37 1.8 35.2 75 -2.2 28
19:45 1029 30.39 859 25.37 1.8 35.2 75 -2.2 28.1
19:50 1030 30.42 859 25.37 1.8 35.2 75 -2.1 28.2
19:55 1030 30.42 859 25.37 1.8 35.2 76 -2 28.3
20:00 1030 30.42 859 25.37 1.7 35.1 75 -2.3 27.9
20:05 1030 30.42 859 25.37 1.7 35 75 -2.2 28
20:10 1030 30.42 859 25.37 1.7 35 75 -2.3 27.9
20:15 1030 30.42 859 25.37 1.7 35.1 75 -2.2 28.1
20:20 1030 30.42 859 25.37 1.6 34.9 76 -2.1 28.2
20:25 1030 30.42 859 25.37 1.6 34.9 76 -2.2 28
20:30 1030 30.42 859 25.37 1.5 34.8 76 -2.3 27.9
20:35 1030 30.42 859 25.37 1.5 34.7 76 -2.3 27.8
20:40 1030 30.42 859 25.37 1.4 34.6 75 -2.5 27.5
20:45 1030 30.42 859 25.37 1.4 34.6 76 -2.4 27.7
20:50 1030 30.42 859 25.37 1.4 34.5 76 -2.3 27.8
20:55 1030 30.42 859 25.37 1.3 34.4 77 -2.3 27.8
21:00 1030 30.42 859 25.37 1.3 34.4 77 -2.3 27.9
21:05 1030 30.42 859 25.37 1.3 34.3 77 -2.3 27.9
21:10 1030 30.42 859 25.37 1.2 34.2 77 -2.3 27.9
21:15 1030 30.42 859 25.37 1.2 34.2 77 -2.3 27.8
21:20 1030 30.42 859 25.37 1.2 34.2 76 -2.5 27.5
21:25 1030 30.42 859 25.37 1.2 34.2 76 -2.6 27.4
21:30 1030 30.42 859 25.37 1.2 34.2 75 -2.7 27.1
21:35 1030 30.42 859 25.37 1.2 34.2 75 -2.7 27.1
21:40 1030 30.42 859 25.37 1.2 34.1 76 -2.6 27.3
21:45 1030 30.42 859 25.37 1.1 34 76 -2.7 27.1
21:50 1030 30.42 859 25.37 1.1 34 76 -2.7 27.1
21:55 1030 30.42 860 25.4 1.1 33.9 76 -2.7 27.2
22:00 1030 30.42 860 25.4 1.1 33.9 76 -2.6 27.3
22:05 1030 30.42 860 25.4 1 33.9 77 -2.6 27.3
22:10 1030 30.42 860 25.4 1 33.8 77 -2.5 27.5
22:15 1030 30.42 860 25.4 0.9 33.7 78 -2.5 27.5
22:20 1030 30.42 860 25.4 0.9 33.7 78 -2.5 27.6
22:25 1031 30.45 860 25.4 0.9 33.7 78 -2.5 27.4
22:30 1031 30.45 860 25.4 0.9 33.7 77 -2.6 27.2
22:35 1031 30.45 860 25.4 1 33.7 78 -2.5 27.5
22:40 1031 30.45 860 25.4 0.9 33.6 78 -2.4 27.6
22:45 1030 30.42 860 25.4 0.8 33.5 79 -2.5 27.5
22:50 1030 30.42 860 25.4 0.8 33.4 78 -2.5 27.4
22:55 1030 30.42 860 25.4 0.8 33.5 78 -2.6 27.3
23:00 1030 30.42 860 25.4 0.8 33.5 78 -2.6 27.4
23:05 1030 30.42 860 25.4 0.8 33.5 78 -2.6 27.3
23:10 1030 30.42 860 25.4 0.7 33.3 78 -2.7 27.1
23:15 1030 30.42 860 25.4 0.7 33.3 78 -2.8 27
23:20 1030 30.42 860 25.4 0.7 33.3 78 -2.8 27
23:25 1031 30.45 860 25.4 0.7 33.2 78 -2.7 27.1
23:30 1031 30.45 860 25.4 0.6 33.1 78 -2.7 27.1
23:35 1031 30.45 860 25.4 0.6 33 79 -2.7 27.1
23:40 1031 30.45 860 25.4 0.5 32.9 79 -2.7 27.1
23:45 1031 30.45 860 25.4 0.5 32.8 79 -2.7 27.1
23:50 1031 30.45 860 25.4 0.4 32.7 80 -2.7 27.1
23:55 1031 30.45 860 25.4 0.4 32.7 80 -2.8 27
24:00 1031 30.45 860 25.4 0.4 32.7 80 -2.7 27.2